createdAt,value
2022-12-08T00:03:52.870Z,0.55
2022-12-08T00:08:58.363Z,0.55
2022-12-08T00:14:01.306Z,0.54
2022-12-08T00:19:04.035Z,0.56
2022-12-08T00:24:07.198Z,0.54
2022-12-08T00:29:15.883Z,0.51
2022-12-08T00:34:20.245Z,0.49
2022-12-08T00:39:22.726Z,0.48
2022-12-08T00:44:25.276Z,0.46
2022-12-08T00:49:27.775Z,0.47
2022-12-08T00:54:30.333Z,0.50
2022-12-08T00:59:32.865Z,0.52
2022-12-08T01:04:35.332Z,0.54
2022-12-08T01:09:37.991Z,0.59
2022-12-08T01:14:40.512Z,0.60
2022-12-08T01:19:43.160Z,0.62
2022-12-08T01:24:45.703Z,0.61
2022-12-08T01:29:48.186Z,0.60
2022-12-08T01:34:50.663Z,0.62
2022-12-08T01:39:53.193Z,0.60
2022-12-08T01:44:59.513Z,0.62
2022-12-08T01:50:03.159Z,0.66
2022-12-08T01:55:14.901Z,0.67
2022-12-08T02:00:20.504Z,0.66
2022-12-08T02:05:27.016Z,0.66
2022-12-08T02:10:32.833Z,0.67
2022-12-08T02:15:44.090Z,0.68
2022-12-08T02:20:55.904Z,0.67
2022-12-08T02:26:01.333Z,0.65
2022-12-08T02:31:21.683Z,0.57
2022-12-08T02:36:34.973Z,0.46
2022-12-08T02:41:46.421Z,0.31
2022-12-08T02:46:54.219Z,0.23
2022-12-08T02:52:02.583Z,0.21
2022-12-08T02:57:24.423Z,0.20
2022-12-08T03:02:32.947Z,0.13
2022-12-08T03:07:42.476Z,0.10
2022-12-08T03:12:52.193Z,0.04
2022-12-08T03:17:57.611Z,-0.08
2022-12-08T03:23:05.260Z,-0.17
2022-12-08T03:28:08.099Z,-0.20
2022-12-08T03:33:18.595Z,-0.25
2022-12-08T03:38:21.703Z,-0.30
2022-12-08T03:43:24.160Z,-0.34
2022-12-08T03:48:26.721Z,-0.31
2022-12-08T03:53:29.219Z,-0.29
2022-12-08T03:58:37.238Z,-0.29
2022-12-08T04:03:40.931Z,-0.30
2022-12-08T04:08:43.437Z,-0.25
2022-12-08T04:13:46.111Z,-0.16
2022-12-08T04:18:48.854Z,-0.08
2022-12-08T04:23:56.097Z,0.06
2022-12-08T04:29:01.718Z,0.19
2022-12-08T04:34:04.214Z,0.27
2022-12-08T04:39:07.024Z,0.35
2022-12-08T04:44:09.538Z,0.42
2022-12-08T04:49:12.035Z,0.46
2022-12-08T04:54:14.532Z,0.48
2022-12-08T04:59:17.001Z,0.50
2022-12-08T05:04:19.501Z,0.56
2022-12-08T05:09:22.193Z,0.60
2022-12-08T05:14:24.667Z,0.66
2022-12-08T05:19:27.160Z,0.69
2022-12-08T05:24:29.700Z,0.70
2022-12-08T05:29:32.245Z,0.69
2022-12-08T05:34:34.754Z,0.71
2022-12-08T05:39:37.427Z,0.74
2022-12-08T05:44:39.939Z,0.74
2022-12-08T05:49:42.431Z,0.75
2022-12-08T05:54:45.034Z,0.75
2022-12-08T05:59:47.505Z,0.75
2022-12-08T06:04:50.048Z,0.74
2022-12-08T06:09:54.845Z,0.75
2022-12-08T06:14:57.317Z,0.73
2022-12-08T06:20:00.007Z,0.70
2022-12-08T06:25:05.995Z,0.69
2022-12-08T06:30:11.284Z,0.67
2022-12-08T06:35:16.440Z,0.66
2022-12-08T06:40:19.154Z,0.64
2022-12-08T06:45:21.659Z,0.59
2022-12-08T06:50:24.313Z,0.57
2022-12-08T06:55:58.747Z,0.55
2022-12-08T07:00:51.587Z,0.57
2022-12-08T07:06:01.813Z,0.60
2022-12-08T07:11:09.133Z,0.59
2022-12-08T07:16:12.878Z,0.63
2022-12-08T07:21:16.444Z,0.67
2022-12-08T07:26:21.339Z,0.74
2022-12-08T07:31:25.548Z,0.80
2022-12-08T07:36:28.235Z,0.84
2022-12-08T07:41:30.815Z,0.87
2022-12-08T07:46:33.692Z,0.93
2022-12-08T07:51:36.419Z,0.98
2022-12-08T07:56:39.115Z,1.03
2022-12-08T08:01:45.321Z,1.10
2022-12-08T08:06:48.403Z,1.10
2022-12-08T08:12:14.465Z,1.11
2022-12-08T08:17:13.477Z,1.10
2022-12-08T08:22:16.424Z,1.20
2022-12-08T08:27:19.476Z,1.23
2022-12-08T08:32:22.161Z,1.19
2022-12-08T08:37:25.093Z,1.16
2022-12-08T08:42:27.827Z,1.20
2022-12-08T08:47:30.373Z,1.24
2022-12-08T08:52:33.100Z,1.30
2022-12-08T08:57:36.165Z,1.43
2022-12-08T09:02:39.806Z,1.55
2022-12-08T09:07:42.845Z,1.64
2022-12-08T09:12:45.772Z,1.62
2022-12-08T09:17:48.252Z,1.63
2022-12-08T09:22:51.185Z,1.69
2022-12-08T09:27:53.899Z,1.70
2022-12-08T09:32:57.000Z,1.67
2022-12-08T09:37:59.724Z,1.72
2022-12-08T09:43:06.381Z,1.61
2022-12-08T09:48:15.969Z,1.50
2022-12-08T09:53:27.371Z,1.34
2022-12-08T09:58:45.620Z,1.20
2022-12-08T10:03:49.356Z,1.14
2022-12-08T10:09:03.273Z,1.09
2022-12-08T10:14:16.292Z,1.00
2022-12-08T10:19:22.637Z,0.94
2022-12-08T10:24:34.509Z,1.01
2022-12-08T10:29:37.105Z,1.20
2022-12-08T10:35:03.675Z,1.56
2022-12-08T10:40:08.447Z,2.08
2022-12-08T10:45:20.144Z,2.44
2022-12-08T10:50:33.695Z,2.58
2022-12-08T10:55:43.503Z,2.54
2022-12-08T11:00:46.255Z,2.45
2022-12-08T11:05:49.503Z,2.51
2022-12-08T11:10:54.511Z,2.55
2022-12-08T11:15:57.707Z,2.55
2022-12-08T11:21:13.612Z,2.51
2022-12-08T11:26:23.883Z,2.58
2022-12-08T11:31:33.574Z,2.63
2022-12-08T11:36:38.070Z,2.59
2022-12-08T11:41:44.697Z,2.55
2022-12-08T11:46:51.006Z,2.54
2022-12-08T11:52:01.460Z,2.69
2022-12-08T11:57:08.533Z,2.91
2022-12-08T12:02:15.090Z,3.02
2022-12-08T12:07:29.024Z,3.03
2022-12-08T12:12:39.454Z,2.96
2022-12-08T12:17:48.260Z,2.88
2022-12-08T12:22:57.783Z,2.78
2022-12-08T12:28:04.489Z,2.65
2022-12-08T12:33:11.822Z,2.59
2022-12-08T12:38:24.527Z,2.51
2022-12-08T12:43:32.772Z,2.46
2022-12-08T12:48:35.285Z,2.41
2022-12-08T12:53:37.724Z,2.33
2022-12-08T12:58:42.396Z,2.22
2022-12-08T13:03:51.279Z,2.05
2022-12-08T13:08:56.164Z,1.86
2022-12-08T13:14:05.383Z,1.70
2022-12-08T13:19:14.439Z,1.56
2022-12-08T13:24:22.820Z,1.44
2022-12-08T13:29:26.510Z,1.39
2022-12-08T13:34:37.264Z,1.36
2022-12-08T13:39:39.675Z,1.32
2022-12-08T14:01:08.986Z,1.13
2022-12-08T14:06:17.556Z,1.07
2022-12-08T14:11:33.587Z,1.06
2022-12-08T14:16:39.755Z,1.11
2022-12-08T14:21:45.667Z,1.16
2022-12-08T14:26:52.914Z,1.17
2022-12-08T14:31:55.367Z,1.22
2022-12-08T14:36:58.549Z,1.31
2022-12-08T14:42:01.121Z,1.39
2022-12-08T14:47:09.451Z,1.42
2022-12-08T14:52:12.404Z,1.47
2022-12-08T14:57:15.520Z,1.54
2022-12-08T15:02:21.664Z,1.62
2022-12-08T15:07:26.140Z,1.66
2022-12-08T15:12:31.782Z,1.65
2022-12-08T15:17:35.356Z,1.67
2022-12-08T15:22:38.772Z,1.71
2022-12-08T15:27:50.246Z,1.76
2022-12-08T15:32:54.106Z,1.77
2022-12-08T15:37:56.685Z,1.78
2022-12-08T15:42:59.191Z,1.79
2022-12-08T15:48:01.718Z,1.81
2022-12-08T15:53:04.216Z,1.80
2022-12-08T16:09:11.241Z,1.85
2022-12-08T16:15:23.029Z,1.88
2022-12-08T16:19:38.472Z,1.83
2022-12-08T16:24:41.042Z,1.81
2022-12-08T16:29:47.033Z,1.86
2022-12-08T16:34:50.513Z,1.89
2022-12-08T16:39:55.092Z,1.90
2022-12-08T16:44:57.666Z,1.92
2022-12-08T16:50:00.204Z,1.97
2022-12-08T16:55:03.350Z,2.01
2022-12-08T17:00:08.855Z,2.01
2022-12-08T17:05:25.504Z,2.01
2022-12-08T17:10:30.278Z,2.01
2022-12-08T17:15:35.278Z,2.02
2022-12-08T17:20:39.183Z,2.00
2022-12-08T17:25:41.645Z,1.98
2022-12-08T17:30:44.211Z,1.98
2022-12-08T17:35:48.761Z,1.98
2022-12-08T17:40:56.957Z,1.98
2022-12-08T17:46:01.138Z,1.99
2022-12-08T17:51:03.798Z,1.99
2022-12-08T17:56:14.580Z,2.00
2022-12-08T18:01:17.272Z,2.02
2022-12-08T18:06:20.205Z,2.03
2022-12-08T18:11:23.859Z,2.03
2022-12-08T18:16:27.767Z,2.08
2022-12-08T18:21:30.418Z,2.08
2022-12-08T18:26:33.552Z,2.08
2022-12-08T18:31:36.016Z,2.10
2022-12-08T18:36:38.599Z,2.16
2022-12-08T18:41:41.065Z,2.20
2022-12-08T18:46:43.556Z,2.20
2022-12-08T18:51:48.896Z,2.15
2022-12-08T18:56:51.385Z,2.13
2022-12-08T19:01:53.923Z,2.15
2022-12-08T19:06:57.344Z,2.17
2022-12-08T19:11:59.850Z,2.20
2022-12-08T19:17:02.396Z,2.23
2022-12-08T19:22:04.949Z,2.27
2022-12-08T19:27:07.545Z,2.30
2022-12-08T19:32:10.027Z,2.30
2022-12-08T19:37:12.923Z,2.28
2022-12-08T19:42:23.195Z,2.30
2022-12-08T19:47:27.553Z,2.35
2022-12-08T19:52:30.041Z,2.38
2022-12-08T19:57:32.546Z,2.38
2022-12-08T20:02:36.344Z,2.43
2022-12-08T20:07:39.943Z,2.47
2022-12-08T20:12:42.527Z,2.50
2022-12-08T20:17:45.079Z,2.50
2022-12-08T20:22:49.787Z,2.52
2022-12-08T20:27:52.287Z,2.58
2022-12-08T20:32:54.767Z,2.63
2022-12-08T20:37:57.296Z,2.66
2022-12-08T20:43:00.130Z,2.68
2022-12-08T20:48:02.674Z,2.70
2022-12-08T20:53:05.398Z,2.71
2022-12-08T20:58:08.741Z,2.67
2022-12-08T21:03:13.164Z,2.60
2022-12-08T21:08:16.110Z,2.53
2022-12-08T21:13:18.877Z,2.46
2022-12-08T21:18:21.850Z,2.36
2022-12-08T21:23:24.408Z,2.24
2022-12-08T21:28:27.391Z,2.10
2022-12-08T21:33:30.051Z,1.97
2022-12-08T21:38:32.775Z,1.87
2022-12-08T21:43:35.791Z,1.76
2022-12-08T21:48:38.316Z,1.64
2022-12-08T21:53:41.037Z,1.57
2022-12-08T21:58:43.670Z,1.52
2022-12-08T22:03:46.399Z,1.47
2022-12-08T22:08:49.196Z,1.44
2022-12-08T22:13:51.796Z,1.45
2022-12-08T22:18:54.438Z,1.43
2022-12-08T22:23:58.413Z,1.38
2022-12-08T22:29:01.697Z,1.37
2022-12-08T22:34:04.303Z,1.37
2022-12-08T22:39:06.803Z,1.38
2022-12-08T22:44:09.544Z,1.40
2022-12-08T22:49:12.106Z,1.41
2022-12-08T22:54:14.647Z,1.44
2022-12-08T22:59:17.127Z,1.46
2022-12-08T23:04:20.147Z,1.45
2022-12-08T23:09:23.613Z,1.45
2022-12-08T23:14:26.140Z,1.45
2022-12-08T23:19:28.743Z,1.48
2022-12-08T23:24:33.430Z,1.47
2022-12-08T23:29:37.107Z,1.47
2022-12-08T23:34:39.694Z,1.49
2022-12-08T23:39:42.226Z,1.51
2022-12-08T23:44:44.645Z,1.54
2022-12-08T23:49:47.063Z,1.53
2022-12-08T23:54:50.343Z,1.48
2022-12-08T23:59:53.004Z,1.51
